Terminal Aerodrome Forecast
Issued by NWS

Home | Current Version | Previous Version | Text Only | Print | Product List | Glossary On
Versions: 1 2 3 4 5 6 7 8 9 10 11 12 13
822
FTUS46 KHNX 230520
TAFBFL
TAF
KBFL 230520Z 2306/2406 29009KT P6SM SCT050 OVC070
      TEMPO 2306/2308 -SHRA BKN050
     FM230800 33007KT P6SM OVC050
      TEMPO 2308/2312 -SHRA
     FM231200 33007KT P6SM BKN050
     FM231800 30009KT P6SM SCT050
     FM240300 VRB04KT P6SM SKC=

USA.gov is the U.S. government's official web portal to all federal, state and local government web resources and services.